Time;durP1;ratioP1;P1;durP2;ratioP2;P2;SDS_P1;SDS_P2;PMS_P1;PMS_P2;Temp;Humidity;BMP_temperature;BMP_pressure;BME280_temperature;BME280_humidity;BME280_pressure;Samples;Min_cycle;Max_cycle;Signal;HPM_P1;HPM_P2
2023/08/26 00:01:12;;;;;;;;;;;;;;;28.00;39.58;99423.72;5074889;28;19974;-78
2023/08/26 00:03:37;;;;;;;;;;;;;;;27.99;39.63;99424.81;5057050;28;19912;-77
2023/08/26 00:06:02;;;;;;;;;;;;;;;27.96;40.09;99424.59;5075167;28;20030;-77
2023/08/26 00:08:28;;;;;;;;;;;;;;;27.92;39.86;99418.16;5057039;28;19912;-77
2023/08/26 00:10:53;;;;;;;;;;;;;;;27.84;40.08;99417.72;5075015;28;20007;-78
2023/08/26 00:13:18;;;;;;;;;;;;;;;27.82;40.45;99421.81;5074937;28;20309;-78
2023/08/26 00:15:43;;;;;;;;;;;;;;;27.84;40.02;99419.63;5074982;28;19917;-78
2023/08/26 00:18:11;;;;;;;;;;;;;;;27.85;40.27;99421.25;5075107;28;19916;-76
2023/08/26 00:20:37;;;;;;;;;;;;;;;27.84;40.00;99427.75;5086817;28;19976;-78
2023/08/26 00:23:02;;;;;;;;;;;;;;;27.80;39.95;99422.13;5095396;28;19919;-81
2023/08/26 00:25:27;;;;;;;;;;;;;;;27.75;39.85;99424.91;5078743;28;20404;-77
2023/08/26 00:27:53;;;;;;;;;;;;;;;27.74;40.17;99423.28;5074440;28;20008;-78
2023/08/26 00:30:18;;;;;;;;;;;;;;;27.74;40.38;99422.50;5056434;28;20003;-78
2023/08/26 00:32:43;;;;;;;;;;;;;;;27.73;40.38;99418.97;5074408;28;19920;-78
2023/08/26 00:35:09;;;;;;;;;;;;;;;27.73;39.91;99416.25;5074579;28;19941;-78
2023/08/26 00:37:34;;;;;;;;;;;;;;;27.68;39.85;99418.25;5074415;28;19916;-78
2023/08/26 00:40:00;;;;;;;;;;;;;;;27.65;40.05;99419.63;5074378;28;19912;-77
2023/08/26 00:42:25;;;;;;;;;;;;;;;27.61;40.00;99418.59;5074476;28;19912;-76
2023/08/26 00:44:50;;;;;;;;;;;;;;;27.57;40.15;99417.53;5076549;28;19920;-78
2023/08/26 00:47:15;;;;;;;;;;;;;;;27.52;40.38;99417.63;5082522;28;20034;-78
2023/08/26 00:49:41;;;;;;;;;;;;;;;27.52;40.22;99414.91;5076497;28;20320;-77
2023/08/26 00:52:06;;;;;;;;;;;;;;;27.48;39.93;99413.84;5056054;28;19938;-78
2023/08/26 00:54:35;;;;;;;;;;;;;;;27.48;40.00;99413.84;5073959;28;19909;-77
2023/08/26 00:57:01;;;;;;;;;;;;;;;27.45;40.06;99415.25;5073885;28;20003;-76
2023/08/26 00:59:26;;;;;;;;;;;;;;;27.45;40.01;99409.00;5055472;28;19995;-77
2023/08/26 01:01:53;;;;;;;;;;;;;;;27.43;40.27;99408.50;5073743;28;19955;-76
2023/08/26 01:04:18;;;;;;;;;;;;;;;27.41;40.35;99410.69;5074051;28;19966;-78
2023/08/26 01:06:44;;;;;;;;;;;;;;;27.37;40.77;99415.91;5073766;28;20389;-76
2023/08/26 01:09:09;;;;;;;;;;;;;;;27.34;40.74;99418.38;5073732;28;20359;-77
2023/08/26 01:11:55;;;;;;;;;;;;;;;27.33;40.85;99414.06;5073841;28;20377;-78
2023/08/26 01:14:44;;;;;;;;;;;;;;;27.30;40.84;99417.34;5073840;28;19982;-78
2023/08/26 01:17:10;;;;;;;;;;;;;;;27.23;41.28;99407.66;5073837;28;19973;-78
2023/08/26 01:19:37;;;;;;;;;;;;;;;27.19;41.24;99406.63;5073653;28;19912;-77
2023/08/26 01:22:05;;;;;;;;;;;;;;;27.15;41.71;99405.59;5073637;28;19917;-78
2023/08/26 01:24:30;;;;;;;;;;;;;;;27.11;41.81;99404.56;5055490;28;19959;-77
2023/08/26 01:26:56;;;;;;;;;;;;;;;27.07;42.32;99403.53;5073796;28;19951;-77
2023/08/26 01:29:21;;;;;;;;;;;;;;;26.98;42.87;99397.16;5055547;28;20283;-76
2023/08/26 01:31:50;;;;;;;;;;;;;;;26.91;43.52;99383.91;5073586;28;19916;-78
2023/08/26 01:34:19;;;;;;;;;;;;;;;26.82;43.44;99393.78;5073500;28;20385;-78
2023/08/26 01:36:45;;;;;;;;;;;;;;;26.79;44.58;99388.13;5073313;28;19924;-77
2023/08/26 01:39:12;;;;;;;;;;;;;;;26.71;43.96;99386.84;5073643;28;19913;-79
2023/08/26 01:41:40;;;;;;;;;;;;;;;26.52;45.36;99381.34;5055342;28;19912;-78
2023/08/26 01:44:05;;;;;;;;;;;;;;;26.37;45.26;99386.13;5073368;28;19920;-77
2023/08/26 01:46:37;;;;;;;;;;;;;;;26.27;46.06;99397.81;5073197;28;19968;-78
2023/08/26 01:49:03;;;;;;;;;;;;;;;26.19;46.67;99390.31;5073106;28;20013;-79
2023/08/26 01:51:28;;;;;;;;;;;;;;;26.12;46.59;99398.75;5073034;28;20416;-76
2023/08/26 01:53:54;;;;;;;;;;;;;;;26.05;47.16;99387.44;5072881;28;19995;-78
2023/08/26 01:56:19;;;;;;;;;;;;;;;26.00;45.63;99392.06;5055157;28;19912;-78
2023/08/26 01:58:44;;;;;;;;;;;;;;;25.93;46.51;99387.78;5073354;28;19919;-76
2023/08/26 02:01:09;;;;;;;;;;;;;;;25.82;46.01;99388.16;5072678;28;19920;-77
2023/08/26 02:03:35;;;;;;;;;;;;;;;25.75;46.14;99382.25;5072686;28;20362;-77
2023/08/26 02:06:00;;;;;;;;;;;;;;;25.68;47.13;99382.56;5072677;28;19948;-79
2023/08/26 02:08:25;;;;;;;;;;;;;;;25.58;46.63;99380.72;5072557;28;19913;-78
2023/08/26 02:10:54;;;;;;;;;;;;;;;25.60;47.94;99393.94;5072688;28;20384;-77
2023/08/26 02:13:19;;;;;;;;;;;;;;;25.57;46.79;99387.19;5072728;28;19917;-78
2023/08/26 02:15:44;;;;;;;;;;;;;;;25.51;47.73;99391.03;5072492;28;19913;-78
2023/08/26 02:18:10;;;;;;;;;;;;;;;25.52;47.13;99381.03;5072520;28;19916;-78
2023/08/26 02:20:35;;;;;;;;;;;;;;;25.51;48.11;99384.81;5072469;28;20317;-77
2023/08/26 02:23:00;;;;;;;;;;;;;;;25.49;47.48;99386.97;5072543;28;19919;-77
2023/08/26 02:25:25;;;;;;;;;;;;;;;25.40;48.26;99384.06;5072271;28;20408;-78
2023/08/26 02:27:51;;;;;;;;;;;;;;;25.38;47.62;99382.72;5072396;28;19912;-77
2023/08/26 02:30:16;;;;;;;;;;;;;;;25.34;48.64;99383.28;5072424;28;19913;-78
2023/08/26 02:32:41;;;;;;;;;;;;;;;25.33;47.06;99381.66;5072583;28;20300;-78
2023/08/26 02:35:07;;;;;;;;;;;;;;;25.34;47.68;99387.88;5072432;28;19917;-78
2023/08/26 02:37:32;;;;;;;;;;;;;;;25.34;47.55;99383.28;5072735;28;20434;-78
2023/08/26 02:39:58;;;;;;;;;;;;;;;25.42;47.17;99389.19;5072107;28;19999;-78
2023/08/26 02:42:24;;;;;;;;;;;;;;;25.48;47.29;99383.47;5072129;28;20393;-79
2023/08/26 02:44:49;;;;;;;;;;;;;;;25.52;47.62;99387.22;5054177;28;19908;-78
2023/08/26 02:47:14;;;;;;;;;;;;;;;25.45;47.76;99392.16;5054177;28;20007;-78
2023/08/26 02:49:39;;;;;;;;;;;;;;;25.41;47.73;99393.78;5072153;28;19965;-78
2023/08/26 02:52:05;;;;;;;;;;;;;;;25.34;48.36;99388.69;5054195;28;20373;-78
2023/08/26 02:54:30;;;;;;;;;;;;;;;25.37;47.10;99392.72;5071951;28;19920;-78
2023/08/26 02:56:55;;;;;;;;;;;;;;;25.40;48.48;99385.97;5071643;28;20385;-77
2023/08/26 02:59:20;;;;;;;;;;;;;;;25.42;48.72;99391.91;5071714;28;19992;-77
2023/08/26 03:01:46;;;;;;;;;;;;;;;25.43;47.70;99393.50;5071549;28;20393;-78
2023/08/26 03:04:11;;;;;;;;;;;;;;;25.38;49.39;99394.34;5053673;28;19913;-77
2023/08/26 03:06:36;;;;;;;;;;;;;;;25.31;49.27;99386.53;5071805;28;19916;-78
2023/08/26 03:09:02;;;;;;;;;;;;;;;25.32;48.74;99395.47;5072026;28;20309;-78
2023/08/26 03:11:27;;;;;;;;;;;;;;;25.31;49.40;99391.94;5053808;28;19921;-77
2023/08/26 03:13:53;;;;;;;;;;;;;;;25.30;48.48;99398.44;5071750;28;19920;-78
2023/08/26 03:16:18;;;;;;;;;;;;;;;25.30;48.95;99401.16;5071691;28;20355;-78
2023/08/26 03:18:43;;;;;;;;;;;;;;;25.30;48.80;99397.63;5071650;28;19913;-78
2023/08/26 03:21:09;;;;;;;;;;;;;;;25.29;49.36;99399.53;5071656;28;19974;-77
2023/08/26 03:23:34;;;;;;;;;;;;;;;25.21;50.05;99405.47;5074936;28;20290;-77
2023/08/26 03:26:00;;;;;;;;;;;;;;;25.18;49.14;99402.53;5078446;28;20006;-78
2023/08/26 03:28:25;;;;;;;;;;;;;;;25.12;49.64;99409.84;5060555;28;19916;-77
2023/08/26 03:30:50;;;;;;;;;;;;;;;25.08;49.88;99407.97;5060509;28;19966;-78
2023/08/26 03:33:16;;;;;;;;;;;;;;;25.06;48.93;99410.94;5080841;28;19935;-79
2023/08/26 03:35:41;;;;;;;;;;;;;;;24.99;50.76;99410.44;5097038;28;19916;-78
2023/08/26 03:38:07;;;;;;;;;;;;;;;24.92;50.26;99408.00;5089806;28;20389;-77
2023/08/26 03:40:32;;;;;;;;;;;;;;;24.86;49.77;99408.28;5078649;28;19973;-75
2023/08/26 03:42:57;;;;;;;;;;;;;;;24.84;50.16;99405.06;5078371;28;19962;-77
2023/08/26 03:45:23;;;;;;;;;;;;;;;24.81;50.04;99402.91;5078290;28;19912;-76
2023/08/26 03:47:49;;;;;;;;;;;;;;;24.78;49.69;99404.25;5078002;28;19912;-77
2023/08/26 03:50:14;;;;;;;;;;;;;;;24.78;50.35;99409.66;5078046;28;19966;-78
2023/08/26 03:52:39;;;;;;;;;;;;;;;24.74;49.93;99408.59;5077965;28;20388;-78
2023/08/26 03:55:05;;;;;;;;;;;;;;;24.69;50.62;99419.41;5077861;28;20428;-78
2023/08/26 03:57:30;;;;;;;;;;;;;;;24.65;49.87;99427.25;5077907;28;19955;-77
2023/08/26 03:59:56;;;;;;;;;;;;;;;24.61;49.36;99422.66;5099630;28;20400;-76
2023/08/26 04:02:21;;;;;;;;;;;;;;;24.57;50.43;99430.50;5089396;28;19916;-78
2023/08/26 04:04:46;;;;;;;;;;;;;;;24.60;49.19;99437.25;5078720;28;20380;-77
2023/08/26 04:07:11;;;;;;;;;;;;;;;24.58;50.15;99445.63;5078597;28;19913;-78
2023/08/26 04:09:39;;;;;;;;;;;;;;;24.57;50.22;99441.28;5077881;28;20325;-77
2023/08/26 04:12:04;;;;;;;;;;;;;;;24.51;50.92;99438.84;5077806;28;19912;-77
2023/08/26 04:14:29;;;;;;;;;;;;;;;24.53;49.53;99436.72;5077616;28;19918;-78
2023/08/26 04:16:54;;;;;;;;;;;;;;;24.59;49.94;99439.13;5077761;28;20435;-78
2023/08/26 04:19:20;;;;;;;;;;;;;;;24.58;49.42;99442.91;5077795;28;20007;-77
2023/08/26 04:21:45;;;;;;;;;;;;;;;24.57;50.31;99443.19;5077773;28;19920;-78
2023/08/26 04:24:11;;;;;;;;;;;;;;;24.61;50.22;99444.25;5059855;28;19919;-78
2023/08/26 04:26:36;;;;;;;;;;;;;;;24.67;49.65;99438.59;5077661;28;19912;-77
2023/08/26 04:29:01;;;;;;;;;;;;;;;24.73;49.66;99431.28;5077583;28;19912;-77
2023/08/26 04:31:27;;;;;;;;;;;;;;;24.79;50.29;99440.19;5059661;28;20408;-78
2023/08/26 04:33:52;;;;;;;;;;;;;;;24.83;49.24;99439.34;5059650;28;19913;-78
2023/08/26 04:36:17;;;;;;;;;;;;;;;24.81;50.42;99438.81;5073205;28;19913;-78
2023/08/26 04:38:43;;;;;;;;;;;;;;;24.85;49.72;99441.78;5074404;28;19917;-78
2023/08/26 04:41:09;;;;;;;;;;;;;;;24.88;49.66;99443.94;5074378;28;19913;-76
2023/08/26 04:43:35;;;;;;;;;;;;;;;24.90;50.03;99444.47;5074447;28;19920;-77
2023/08/26 04:46:00;;;;;;;;;;;;;;;24.96;49.53;99451.47;5074602;28;19912;-77
2023/08/26 04:48:28;;;;;;;;;;;;;;;24.92;49.91;99455.81;5074328;28;19913;-77
2023/08/26 04:50:53;;;;;;;;;;;;;;;24.94;49.63;99449.06;5074334;28;19920;-77
2023/08/26 04:53:18;;;;;;;;;;;;;;;24.99;50.62;99461.75;5074412;28;19912;-78
2023/08/26 04:55:44;;;;;;;;;;;;;;;25.01;49.43;99457.69;5074182;28;19919;-77
2023/08/26 04:58:09;;;;;;;;;;;;;;;25.05;49.29;99451.75;5073847;28;20442;-77
2023/08/26 05:00:36;;;;;;;;;;;;;;;25.04;49.50;99453.63;5073743;28;19920;-76
2023/08/26 05:03:01;;;;;;;;;;;;;;;25.07;49.28;99465.78;5074068;28;20346;-78
2023/08/26 05:05:27;;;;;;;;;;;;;;;25.08;49.55;99464.72;5055980;28;20043;-78
2023/08/26 05:07:52;;;;;;;;;;;;;;;25.15;49.47;99467.94;5073946;28;19966;-78
2023/08/26 05:10:18;;;;;;;;;;;;;;;25.22;49.98;99471.94;5073848;28;19918;-77
2023/08/26 05:12:43;;;;;;;;;;;;;;;25.22;49.81;99461.16;5055789;28;19927;-77
2023/08/26 05:15:08;;;;;;;;;;;;;;;25.21;50.00;99462.22;5055655;28;19913;-78
2023/08/26 05:17:34;;;;;;;;;;;;;;;25.22;49.18;99461.16;5073638;28;19917;-78
2023/08/26 05:19:59;;;;;;;;;;;;;;;25.25;49.34;99463.28;5073724;28;20419;-78
2023/08/26 05:22:24;;;;;;;;;;;;;;;25.28;49.78;99457.38;5073547;28;19912;-78
2023/08/26 05:24:49;;;;;;;;;;;;;;;25.32;49.32;99461.13;5073642;28;19912;-78
2023/08/26 05:27:15;;;;;;;;;;;;;;;25.36;50.14;99472.19;5055529;28;20392;-78
2023/08/26 05:29:40;;;;;;;;;;;;;;;25.38;49.63;99467.31;5073380;28;19913;-78
2023/08/26 05:32:06;;;;;;;;;;;;;;;25.39;49.39;99463.53;5055425;28;19913;-78
2023/08/26 05:34:31;;;;;;;;;;;;;;;25.43;48.78;99466.50;5073348;28;20290;-77
2023/08/26 05:36:57;;;;;;;;;;;;;;;25.45;49.29;99464.31;5073319;28;19928;-77
2023/08/26 05:39:22;;;;;;;;;;;;;;;25.50;48.57;99465.09;5073388;28;19920;-77
2023/08/26 05:41:47;;;;;;;;;;;;;;;25.57;48.53;99465.63;5055334;28;19913;-77
2023/08/26 05:44:13;;;;;;;;;;;;;;;25.67;48.59;99463.97;5073500;28;19913;-78
2023/08/26 05:46:38;;;;;;;;;;;;;;;25.74;48.95;99459.06;5055014;28;19919;-77
2023/08/26 05:49:03;;;;;;;;;;;;;;;25.80;48.39;99466.88;5055378;28;19923;-77
2023/08/26 05:51:28;;;;;;;;;;;;;;;25.88;48.87;99470.88;5073556;28;19964;-77
2023/08/26 05:53:54;;;;;;;;;;;;;;;25.93;48.42;99466.25;5055118;28;19913;-77
2023/08/26 05:56:19;;;;;;;;;;;;;;;26.03;48.44;99472.69;5073118;28;20012;-77
2023/08/26 05:58:44;;;;;;;;;;;;;;;26.08;48.24;99469.97;5072844;28;19916;-77
2023/08/26 06:01:10;;;;;;;;;;;;;;;26.15;48.30;99470.44;5072882;28;19944;-77
2023/08/26 06:03:35;;;;;;;;;;;;;;;26.20;47.95;99468.50;5072680;28;19934;-77
2023/08/26 06:06:00;;;;;;;;;;;;;;;26.25;47.74;99467.66;5072665;28;20373;-77
2023/08/26 06:08:25;;;;;;;;;;;;;;;26.34;47.69;99459.78;5072885;28;20003;-78
2023/08/26 06:10:54;;;;;;;;;;;;;;;26.36;47.60;99461.09;5072528;28;20005;-77
2023/08/26 06:13:19;;;;;;;;;;;;;;;26.40;48.00;99470.28;5072875;28;19912;-77
2023/08/26 06:15:45;;;;;;;;;;;;;;;26.46;47.49;99476.44;5054628;28;19918;-77
2023/08/26 06:18:10;;;;;;;;;;;;;;;26.50;47.55;99466.66;5054513;28;19965;-76
2023/08/26 06:20:35;;;;;;;;;;;;;;;26.53;47.45;99480.44;5072716;28;19912;-78
2023/08/26 06:23:02;;;;;;;;;;;;;;;26.60;47.62;99491.75;5072586;28;19967;-78
2023/08/26 06:25:27;;;;;;;;;;;;;;;26.59;47.86;99484.72;5072439;28;19912;-78
2023/08/26 06:27:53;;;;;;;;;;;;;;;26.65;47.76;99481.97;5072617;28;19985;-78
2023/08/26 06:30:18;;;;;;;;;;;;;;;26.69;47.51;99491.94;5072427;28;20335;-78
2023/08/26 06:32:44;;;;;;;;;;;;;;;26.76;48.01;99483.50;5072350;28;20007;-78
2023/08/26 06:35:09;;;;;;;;;;;;;;;26.82;47.67;99487.78;5072230;28;19912;-78
2023/08/26 06:37:35;;;;;;;;;;;;;;;26.90;47.42;99485.25;5072358;28;19959;-76
2023/08/26 06:40:00;;;;;;;;;;;;;;;26.97;47.20;99490.34;5072283;28;20448;-76
2023/08/26 06:42:25;;;;;;;;;;;;;;;27.04;46.85;99490.03;5072670;28;19938;-77
2023/08/26 06:44:51;;;;;;;;;;;;;;;27.10;46.77;99492.41;5074125;28;20378;-77
2023/08/26 06:47:16;;;;;;;;;;;;;;;27.21;46.84;99485.75;5075543;28;19948;-78
2023/08/26 06:49:41;;;;;;;;;;;;;;;27.32;47.03;99491.06;5086762;28;19912;-77
2023/08/26 06:52:07;;;;;;;;;;;;;;;27.35;45.71;99491.28;5072508;28;19912;-78
2023/08/26 06:54:33;;;;;;;;;;;;;;;27.41;45.35;99495.56;5073100;28;19919;-77
2023/08/26 06:56:58;;;;;;;;;;;;;;;27.49;44.67;99492.19;5072442;28;19969;-77
2023/08/26 06:59:23;;;;;;;;;;;;;;;27.55;43.97;99495.69;5071326;28;19916;-77
2023/08/26 07:01:48;;;;;;;;;;;;;;;27.64;43.98;99499.41;5053885;28;19928;-77
2023/08/26 07:04:14;;;;;;;;;;;;;;;27.74;43.87;99499.25;5071893;28;19912;-77
2023/08/26 07:06:39;;;;;;;;;;;;;;;27.83;43.08;99496.69;5053913;28;19913;-77
2023/08/26 07:09:05;;;;;;;;;;;;;;;27.87;43.31;99502.34;5071709;28;20349;-77
2023/08/26 07:11:30;;;;;;;;;;;;;;;27.93;43.30;99493.84;5078429;28;19913;-77
2023/08/26 07:13:56;;;;;;;;;;;;;;;27.98;42.97;99501.09;5076525;28;19913;-77
2023/08/26 07:16:21;;;;;;;;;;;;;;;28.03;42.97;99490.97;5071540;28;19962;-77
2023/08/26 07:18:46;;;;;;;;;;;;;;;28.12;43.00;99491.13;5071741;28;19916;-77
2023/08/26 07:21:11;;;;;;;;;;;;;;;28.17;42.96;99491.03;5053644;28;20384;-77
2023/08/26 07:23:38;;;;;;;;;;;;;;;28.24;42.87;99487.97;5071520;28;19947;-77
2023/08/26 07:26:03;;;;;;;;;;;;;;;28.30;42.54;99492.25;5071660;28;19966;-77
2023/08/26 07:28:29;;;;;;;;;;;;;;;28.35;42.26;99487.53;5071767;28;20355;-77
2023/08/26 07:31:01;;;;;;;;;;;;;;;28.44;42.03;99490.38;5071824;28;19920;-77
2023/08/26 07:33:26;;;;;;;;;;;;;;;28.48;41.49;99486.78;5071816;28;19912;-78
2023/08/26 07:35:51;;;;;;;;;;;;;;;28.55;41.50;99488.31;5071694;28;20294;-77
2023/08/26 07:38:16;;;;;;;;;;;;;;;28.60;40.66;99482.78;5071739;28;19916;-77
2023/08/26 07:40:42;;;;;;;;;;;;;;;28.65;40.12;99475.34;5071558;28;20374;-77
2023/08/26 07:43:07;;;;;;;;;;;;;;;28.69;40.75;99483.72;5071489;28;19916;-77
2023/08/26 07:45:32;;;;;;;;;;;;;;;28.77;40.77;99477.59;5071570;28;19991;-78
2023/08/26 07:47:57;;;;;;;;;;;;;;;28.85;40.73;99484.28;5071442;28;19955;-78
2023/08/26 07:50:23;;;;;;;;;;;;;;;28.86;39.67;99475.81;5071377;28;19919;-77
2023/08/26 07:52:48;;;;;;;;;;;;;;;28.93;39.22;99470.78;5071367;28;19913;-77
2023/08/26 07:55:13;;;;;;;;;;;;;;;29.03;39.55;99475.25;5071283;28;19912;-77
2023/08/26 07:57:38;;;;;;;;;;;;;;;29.12;39.45;99470.72;5071463;28;19923;-77
2023/08/26 08:00:05;;;;;;;;;;;;;;;29.22;39.58;99478.69;5071040;28;19921;-78
2023/08/26 08:02:31;;;;;;;;;;;;;;;29.30;39.82;99471.72;5071403;28;19912;-77
2023/08/26 08:04:56;;;;;;;;;;;;;;;29.42;39.36;99474.75;5053158;28;19912;-78
2023/08/26 08:07:21;;;;;;;;;;;;;;;29.50;39.14;99465.09;5071416;28;19977;-76
2023/08/26 08:09:46;;;;;;;;;;;;;;;29.61;37.22;99467.28;5072798;28;19917;-78
2023/08/26 08:12:14;;;;;;;;;;;;;;;29.72;37.83;99468.66;5075012;28;20365;-78
2023/08/26 08:14:40;;;;;;;;;;;;;;;29.80;37.62;99474.53;5075067;28;19969;-77
2023/08/26 08:17:05;;;;;;;;;;;;;;;29.88;37.41;99469.16;5074883;28;19916;-76
2023/08/26 08:19:30;;;;;;;;;;;;;;;29.91;36.42;99475.91;5075049;28;19912;-78
2023/08/26 08:21:55;;;;;;;;;;;;;;;30.03;36.79;99470.75;5074835;28;19965;-76
2023/08/26 08:24:21;;;;;;;;;;;;;;;30.18;36.37;99467.66;5074649;28;19919;-76
2023/08/26 08:26:46;;;;;;;;;;;;;;;30.26;37.13;99466.13;5074592;28;19912;-78
2023/08/26 08:29:12;;;;;;;;;;;;;;;30.35;36.97;99467.78;5074559;28;19912;-77
2023/08/26 08:31:37;;;;;;;;;;;;;;;30.46;37.18;99464.78;5056539;28;19916;-77
2023/08/26 08:34:03;;;;;;;;;;;;;;;30.55;36.72;99460.22;5074690;28;19965;-77
2023/08/26 08:36:29;;;;;;;;;;;;;;;30.70;36.46;99448.97;5074327;28;19912;-78
2023/08/26 08:38:54;;;;;;;;;;;;;;;30.83;37.20;99450.78;5074553;28;19935;-75
2023/08/26 08:41:19;;;;;;;;;;;;;;;30.96;36.39;99452.59;5074311;28;19943;-78
2023/08/26 08:43:47;;;;;;;;;;;;;;;31.07;36.38;99449.59;5056351;28;19995;-76
2023/08/26 08:46:13;;;;;;;;;;;;;;;31.16;36.13;99445.78;5074199;28;20003;-76
2023/08/26 08:48:39;;;;;;;;;;;;;;;31.28;36.06;99442.50;5074429;28;20402;-76
2023/08/26 08:51:04;;;;;;;;;;;;;;;31.44;35.52;99440.91;5074346;28;19944;-77
2023/08/26 08:53:32;;;;;;;;;;;;;;;31.51;34.97;99434.97;5074235;28;19934;-77
2023/08/26 08:56:00;;;;;;;;;;;;;;;31.66;35.73;99439.97;5074214;28;19960;-77
2023/08/26 08:58:26;;;;;;;;;;;;;;;31.80;35.13;99440.66;5056062;28;19924;-77
2023/08/26 09:00:52;;;;;;;;;;;;;;;31.94;34.81;99437.75;5074011;28;19924;-78
2023/08/26 09:03:18;;;;;;;;;;;;;;;32.06;34.14;99424.28;5056058;28;19999;-78
2023/08/26 09:05:43;;;;;;;;;;;;;;;32.19;34.72;99423.28;5055921;28;20004;-78
2023/08/26 09:08:09;;;;;;;;;;;;;;;32.39;34.31;99426.50;5074033;28;20046;-77
2023/08/26 09:10:35;;;;;;;;;;;;;;;32.62;33.58;99424.34;5074181;28;19923;-77
2023/08/26 09:13:00;;;;;;;;;;;;;;;32.83;33.61;99425.28;5074177;28;19916;-77
2023/08/26 09:15:26;;;;;;;;;;;;;;;33.02;33.32;99413.94;5074444;28;19912;-77
2023/08/26 09:17:56;;;;;;;;;;;;;;;33.15;32.87;99416.41;5073852;28;20375;-76
2023/08/26 09:20:21;;;;;;;;;;;;;;;33.27;33.04;99404.75;5073643;28;19912;-78
2023/08/26 09:22:46;;;;;;;;;;;;;;;33.43;32.21;99407.75;5073222;28;19912;-78
2023/08/26 09:25:11;;;;;;;;;;;;;;;33.67;32.23;99407.09;5073487;28;19912;-77
2023/08/26 09:27:40;;;;;;;;;;;;;;;33.87;33.21;99400.84;5055565;28;19966;-78
2023/08/26 09:30:07;;;;;;;;;;;;;;;33.98;32.57;99398.47;5073341;28;20457;-77
2023/08/26 09:32:40;;;;;;;;;;;;;;;34.15;31.88;99395.56;5073712;28;19908;-77
2023/08/26 09:35:09;;;;;;;;;;;;;;;34.33;32.25;99402.53;5073565;28;19913;-77
2023/08/26 09:37:35;;;;;;;;;;;;;;;34.49;31.23;99393.63;5073314;28;19969;-78
2023/08/26 09:40:00;;;;;;;;;;;;;;;34.64;31.35;99396.50;5055286;28;19912;-78
2023/08/26 09:42:26;;;;;;;;;;;;;;;34.70;29.96;99391.59;5073257;28;19913;-78
2023/08/26 09:44:55;;;;;;;;;;;;;;;34.84;30.58;99394.03;5055452;28;19924;-76
2023/08/26 09:47:20;;;;;;;;;;;;;;;35.07;31.01;99391.66;5073611;28;19943;-77
2023/08/26 09:49:47;;;;;;;;;;;;;;;35.26;30.23;99389.91;5073130;28;19912;-78
2023/08/26 09:52:13;;;;;;;;;;;;;;;35.42;29.57;99381.78;5073238;28;19988;-77
2023/08/26 09:54:39;;;;;;;;;;;;;;;35.58;28.39;99374.41;5053653;28;20333;-77
2023/08/26 09:57:04;;;;;;;;;;;;;;;35.75;29.90;99370.59;5073043;28;19917;-77
2023/08/26 09:59:29;;;;;;;;;;;;;;;35.89;29.25;99372.97;5073093;28;20381;-77
2023/08/26 10:02:01;;;;;;;;;;;;;;;35.85;27.56;99366.56;5073643;28;19920;-77
2023/08/26 10:04:28;;;;;;;;;;;;;;;35.93;28.88;99369.16;5093537;28;19912;-78
2023/08/26 10:06:57;;;;;;;;;;;;;;;36.11;28.24;99369.63;5087755;28;19919;-77
2023/08/26 10:09:22;;;;;;;;;;;;;;;36.34;27.85;99360.81;5073212;28;19999;-77
2023/08/26 10:11:48;;;;;;;;;;;;;;;36.43;30.37;99362.28;5073037;28;19985;-77
2023/08/26 10:14:14;;;;;;;;;;;;;;;36.66;28.78;99356.94;5072904;28;19916;-77
2023/08/26 10:16:41;;;;;;;;;;;;;;;36.84;27.66;99362.88;5054339;28;19913;-77
2023/08/26 10:19:07;;;;;;;;;;;;;;;36.88;27.48;99358.25;5072297;28;19956;-76
2023/08/26 10:21:33;;;;;;;;;;;;;;;37.02;26.74;99357.78;5054578;28;19913;-76
2023/08/26 10:23:59;;;;;;;;;;;;;;;37.04;29.50;99356.28;5072712;28;19974;-78
2023/08/26 10:26:25;;;;;;;;;;;;;;;37.01;28.09;99357.00;5072825;28;19912;-77
2023/08/26 10:28:51;;;;;;;;;;;;;;;37.14;26.91;99343.91;5072166;28;19916;-77
2023/08/26 10:31:16;;;;;;;;;;;;;;;37.36;26.96;99350.72;5072279;28;19956;-77
2023/08/26 10:34:01;;;;;;;;;;;;;;;37.43;25.89;99339.84;5071292;28;20007;-75
2023/08/26 10:36:27;;;;;;;;;;;;;;;37.32;27.79;99344.34;5072196;28;19934;-76
2023/08/26 10:38:59;;;;;;;;;;;;;;;37.48;26.29;99336.81;5071813;28;20462;-76
2023/08/26 10:41:25;;;;;;;;;;;;;;;37.71;26.49;99340.44;5072040;28;19981;-78
2023/08/26 10:43:54;;;;;;;;;;;;;;;37.87;26.78;99337.59;5054161;28;20294;-79
2023/08/26 10:46:33;;;;;;;;;;;;;;;37.95;28.11;99338.56;5072164;28;19920;-78
2023/08/26 10:48:59;;;;;;;;;;;;;;;37.98;26.02;99335.88;5072045;28;19913;-78
2023/08/26 10:51:25;;;;;;;;;;;;;;;37.90;26.49;99328.59;5072245;28;19935;-77
2023/08/26 10:53:50;;;;;;;;;;;;;;;37.79;27.61;99322.88;5071713;28;19912;-78
2023/08/26 10:56:21;;;;;;;;;;;;;;;38.03;26.05;99324.53;5054011;28;20355;-76
2023/08/26 10:58:47;;;;;;;;;;;;;;;38.20;25.54;99322.47;5053694;28;19921;-76
2023/08/26 11:01:13;;;;;;;;;;;;;;;38.39;25.96;99320.44;5071601;28;19943;-78
2023/08/26 11:03:39;;;;;;;;;;;;;;;38.41;25.77;99326.41;5071745;28;19924;-77
2023/08/26 11:06:05;;;;;;;;;;;;;;;38.42;25.37;99316.94;5071653;28;19912;-77
2023/08/26 11:08:31;;;;;;;;;;;;;;;38.14;24.85;99308.19;5071626;28;19920;-78
2023/08/26 11:10:56;;;;;;;;;;;;;;;38.19;26.22;99309.84;5071491;28;20055;-78
2023/08/26 11:13:22;;;;;;;;;;;;;;;38.30;25.42;99302.56;5071798;28;19912;-77
2023/08/26 11:15:48;;;;;;;;;;;;;;;38.14;25.62;99311.72;5071804;28;19959;-78
2023/08/26 11:18:13;;;;;;;;;;;;;;;38.20;25.73;99298.47;5071874;28;19917;-75
2023/08/26 11:20:39;;;;;;;;;;;;;;;38.42;25.89;99299.59;5072023;28;20219;-78
2023/08/26 11:23:05;;;;;;;;;;;;;;;38.40;25.61;99296.41;5071807;28;19912;-76
2023/08/26 11:25:30;;;;;;;;;;;;;;;38.61;26.22;99294.00;5053638;28;20375;-78
2023/08/26 11:28:05;;;;;;;;;;;;;;;38.67;25.31;99291.75;5071678;28;19912;-75
2023/08/26 11:30:35;;;;;;;;;;;;;;;38.92;25.65;99297.63;5071706;28;19954;-77
2023/08/26 11:33:05;;;;;;;;;;;;;;;39.10;25.26;99290.41;5071782;28;19944;-76
2023/08/26 11:35:31;;;;;;;;;;;;;;;39.16;24.68;99275.09;5053580;28;19912;-77
2023/08/26 11:37:56;;;;;;;;;;;;;;;39.21;25.36;99272.00;5071728;28;19916;-78
2023/08/26 11:40:22;;;;;;;;;;;;;;;39.42;25.24;99271.50;5071740;28;19912;-76
2023/08/26 11:42:48;;;;;;;;;;;;;;;39.58;25.85;99274.84;5071547;28;19995;-77
2023/08/26 11:45:13;;;;;;;;;;;;;;;39.57;24.67;99262.22;5073825;28;20054;-77
2023/08/26 11:47:41;;;;;;;;;;;;;;;39.67;24.49;99260.72;5075557;28;20339;-78
2023/08/26 11:50:08;;;;;;;;;;;;;;;39.75;25.04;99253.28;5075447;28;19919;-77
2023/08/26 11:52:35;;;;;;;;;;;;;;;39.85;24.18;99250.63;5075273;28;20050;-77
2023/08/26 11:55:04;;;;;;;;;;;;;;;39.89;25.12;99247.91;5075050;28;19919;-78
2023/08/26 11:57:31;;;;;;;;;;;;;;;39.99;24.73;99236.97;5075233;28;19917;-78
2023/08/26 12:00:10;;;;;;;;;;;;;;;39.99;24.10;99238.94;5075345;28;19912;-77
2023/08/26 12:02:35;;;;;;;;;;;;;;;40.03;23.62;99234.22;5057286;28;20332;-77
2023/08/26 12:05:01;;;;;;;;;;;;;;;40.12;23.24;99233.91;5075212;28;19919;-78
2023/08/26 12:07:26;;;;;;;;;;;;;;;40.16;24.12;99241.06;5075065;28;19913;-78
2023/08/26 12:09:52;;;;;;;;;;;;;;;40.23;23.37;99238.34;5075075;28;19912;-77
2023/08/26 12:12:18;;;;;;;;;;;;;;;40.08;23.56;99233.88;5075004;28;20006;-78
2023/08/26 12:14:44;;;;;;;;;;;;;;;40.05;23.87;99233.84;5056997;28;19912;-78
2023/08/26 12:17:10;;;;;;;;;;;;;;;40.02;24.29;99229.88;5074830;28;19974;-79
2023/08/26 12:19:36;;;;;;;;;;;;;;;39.96;22.73;99223.09;5074950;28;20385;-78
2023/08/26 12:22:01;;;;;;;;;;;;;;;39.90;23.90;99213.53;5074837;28;19954;-78
2023/08/26 12:24:27;;;;;;;;;;;;;;;39.85;24.26;99214.69;5075140;28;20373;-78
2023/08/26 12:26:53;;;;;;;;;;;;;;;39.95;24.27;99213.22;5075389;28;19912;-78
2023/08/26 12:29:18;;;;;;;;;;;;;;;39.98;24.20;99212.47;5074781;28;19971;-78
2023/08/26 12:31:43;;;;;;;;;;;;;;;39.87;24.06;99219.84;5074786;28;20373;-77
2023/08/26 12:34:11;;;;;;;;;;;;;;;39.71;23.62;99220.09;5074817;28;19966;-78
2023/08/26 12:36:37;;;;;;;;;;;;;;;39.64;25.03;99204.25;5074676;28;19991;-78
2023/08/26 12:39:03;;;;;;;;;;;;;;;39.66;24.32;99196.38;5074549;28;20003;-75
2023/08/26 12:41:28;;;;;;;;;;;;;;;39.71;24.32;99197.97;5056449;28;19916;-77